RZN1372 PHNL-DFFD
Flight info
| Callsign | RZN1372 |
|---|---|
| Flight time | N/A |
| Altitude | 31000 |
| Route | MKK5 APACK R463 ADOPE/N0493F330 R463 ALLBE DCT OAK/N0485F350 J84 MVA J56 TCH J154 OCS J94 ONL J148 GOOLD/N0489F370 J148 MCW J16 BAE J36 FNT Q818 DERLO Q913 TOPPS/M084F370 N49E JAROM/M084F390 DCT 42N048W 40N042W 38N036W 35N030W 32N025W DCT NEXUX/N0476F410 DCT ROSTA Y611 CABOJ N728 MIYEC UT365 SOLMA UR866 NUSUR BIKOR1L |
| Aircraft | B772/H-SDE2E3FGHIJ5LORVWXY/LB1D1 |
Departure
| Time | 2026-05-06 19:53 |
|---|---|
| Airport | Daniel K. Inouye International Airport (PHNL) |
Arrival
| Time | N/A |
|---|---|
| Airport | Ouagadougou Thomas Sankara International Airport (DFFD) |
| Time | Latitude | Longitude | Altitude | Speed | Heading |
|---|---|---|---|---|---|
| 2026-05-06 19:31 | 21.33090 | -157.92781 | 46 ft | 0 kts | 314° |
| 2026-05-06 19:41 | 21.33089 | -157.92780 | 46 ft | 1 kts | 314° |
| 2026-05-06 19:42 | 21.33079 | -157.92767 | 46 ft | 2 kts | 297° |
| 2026-05-06 19:42 | 21.33074 | -157.92752 | 46 ft | 2 kts | 283° |
| 2026-05-06 19:42 | 21.33072 | -157.92735 | 46 ft | 2 kts | 269° |
| 2026-05-06 19:42 | 21.33073 | -157.92720 | 46 ft | 2 kts | 255° |
| 2026-05-06 19:43 | 21.33079 | -157.92705 | 46 ft | 2 kts | 241° |
| 2026-05-06 19:43 | 21.33087 | -157.92691 | 46 ft | 2 kts | 227° |
| 2026-05-06 19:43 | 21.33097 | -157.92680 | 46 ft | 1 kts | 223° |
| 2026-05-06 19:43 | 21.33098 | -157.92679 | 46 ft | 0 kts | 223° |
| 2026-05-06 19:47 | 21.33098 | -157.92680 | 46 ft | 0 kts | 223° |
| 2026-05-06 19:48 | 21.33086 | -157.92693 | 46 ft | 4 kts | 224° |
| 2026-05-06 19:48 | 21.33052 | -157.92729 | 46 ft | 9 kts | 226° |
| 2026-05-06 19:48 | 21.32991 | -157.92795 | 44 ft | 14 kts | 223° |
| 2026-05-06 19:48 | 21.32909 | -157.92879 | 43 ft | 18 kts | 208° |
| 2026-05-06 19:49 | 21.32779 | -157.92906 | 42 ft | 19 kts | 198° |
| 2026-05-06 19:49 | 21.32739 | -157.93036 | 41 ft | 21 kts | 272° |
| 2026-05-06 19:49 | 21.32741 | -157.93201 | 40 ft | 23 kts | 270° |
| 2026-05-06 19:49 | 21.32747 | -157.93384 | 40 ft | 25 kts | 272° |
| 2026-05-06 19:50 | 21.32741 | -157.93578 | 41 ft | 25 kts | 269° |
| 2026-05-06 19:50 | 21.32741 | -157.93758 | 41 ft | 23 kts | 270° |
| 2026-05-06 19:50 | 21.32741 | -157.93924 | 41 ft | 21 kts | 269° |
| 2026-05-06 19:50 | 21.32740 | -157.94083 | 40 ft | 21 kts | 270° |
| 2026-05-06 19:51 | 21.32740 | -157.94234 | 40 ft | 19 kts | 270° |
| 2026-05-06 19:51 | 21.32668 | -157.94325 | 40 ft | 17 kts | 182° |
| 2026-05-06 19:51 | 21.32548 | -157.94324 | 40 ft | 15 kts | 179° |
| 2026-05-06 19:51 | 21.32521 | -157.94281 | 40 ft | 0 kts | 86° |
| 2026-05-06 19:52 | 21.32522 | -157.94253 | 40 ft | 21 kts | 87° |
| 2026-05-06 19:52 | 21.32525 | -157.93858 | 37 ft | 83 kts | 90° |
| 2026-05-06 19:52 | 21.32527 | -157.93053 | 37 ft | 135 kts | 91° |
| 2026-05-06 19:52 | 21.32521 | -157.91864 | 32 ft | 181 kts | 90° |
| 2026-05-06 19:53 | 21.32518 | -157.90474 | 353 ft | 187 kts | 86° |
| 2026-05-06 19:53 | 21.32575 | -157.89171 | 849 ft | 187 kts | 83° |
| 2026-05-06 19:53 | 21.32685 | -157.87772 | 1349 ft | 188 kts | 83° |
| 2026-05-06 19:53 | 21.32795 | -157.86372 | 1732 ft | 189 kts | 83° |
| 2026-05-06 19:54 | 21.32849 | -157.85011 | 2155 ft | 187 kts | 94° |
| 2026-05-06 19:54 | 21.32535 | -157.83627 | 2416 ft | 196 kts | 112° |
| 2026-05-06 19:54 | 21.31922 | -157.82314 | 2685 ft | 205 kts | 118° |
| 2026-05-06 19:54 | 21.31249 | -157.81001 | 3082 ft | 208 kts | 118° |
| 2026-05-06 19:55 | 21.30570 | -157.79628 | 3601 ft | 204 kts | 116° |
| 2026-05-06 19:55 | 21.29970 | -157.78323 | 4169 ft | 195 kts | 115° |
| 2026-05-06 19:55 | 21.29418 | -157.77042 | 4509 ft | 201 kts | 113° |
| 2026-05-06 19:55 | 21.28835 | -157.75615 | 4698 ft | 213 kts | 113° |
| 2026-05-06 19:56 | 21.28255 | -157.74202 | 5168 ft | 209 kts | 114° |
| 2026-05-06 19:56 | 21.27629 | -157.72766 | 5346 ft | 222 kts | 115° |
| 2026-05-06 19:56 | 21.26955 | -157.71269 | 5567 ft | 231 kts | 116° |
| 2026-05-06 19:56 | 21.26259 | -157.69702 | 5707 ft | 247 kts | 112° |
| 2026-05-06 19:57 | 21.25653 | -157.67928 | 5949 ft | 259 kts | 107° |
| 2026-05-06 19:57 | 21.25194 | -157.66063 | 6446 ft | 259 kts | 99° |
| 2026-05-06 19:57 | 21.25149 | -157.64168 | 6852 ft | 263 kts | 77° |
| 2026-05-06 19:57 | 21.25884 | -157.62337 | 6990 ft | 277 kts | 52° |
| 2026-05-06 19:58 | 21.27078 | -157.60761 | 7524 ft | 279 kts | 49° |
| 2026-05-06 19:58 | 21.28362 | -157.59183 | 8134 ft | 281 kts | 47° |
| 2026-05-06 19:58 | 21.29681 | -157.57660 | 8652 ft | 286 kts | 46° |
| 2026-05-06 19:58 | 21.31029 | -157.56139 | 9278 ft | 286 kts | 46° |
| 2026-05-06 19:59 | 21.32415 | -157.54588 | 9790 ft | 288 kts | 46° |
| 2026-05-06 19:59 | 21.33822 | -157.53015 | 10159 ft | 296 kts | 46° |
| 2026-05-06 19:59 | 21.35274 | -157.51392 | 10306 ft | 311 kts | 46° |
| 2026-05-06 19:59 | 21.36802 | -157.49684 | 10460 ft | 327 kts | 46° |
| 2026-05-06 20:00 | 21.38349 | -157.47954 | 10478 ft | 342 kts | 46° |
| 2026-05-06 20:00 | 21.40032 | -157.46069 | 10463 ft | 360 kts | 46° |
| 2026-05-06 20:00 | 21.41798 | -157.44092 | 10450 ft | 377 kts | 46° |
| 2026-05-06 20:00 | 21.43601 | -157.42075 | 10611 ft | 387 kts | 46° |
| 2026-05-06 20:01 | 21.45457 | -157.39995 | 11064 ft | 391 kts | 45° |
| 2026-05-06 20:01 | 21.47325 | -157.37901 | 11572 ft | 392 kts | 45° |
| 2026-05-06 20:01 | 21.49181 | -157.35820 | 12024 ft | 395 kts | 45° |
| 2026-05-06 20:01 | 21.51107 | -157.33661 | 12447 ft | 399 kts | 46° |
| 2026-05-06 20:02 | 21.52956 | -157.31586 | 12840 ft | 403 kts | 46° |
| 2026-05-06 20:02 | 21.54862 | -157.29446 | 13280 ft | 406 kts | 46° |
| 2026-05-06 20:02 | 21.56820 | -157.27246 | 13740 ft | 408 kts | 46° |
| 2026-05-06 20:02 | 21.58713 | -157.25117 | 14177 ft | 410 kts | 46° |
| 2026-05-06 20:03 | 21.60695 | -157.22890 | 14639 ft | 412 kts | 46° |
| 2026-05-06 20:03 | 21.62656 | -157.20685 | 15070 ft | 415 kts | 46° |
| 2026-05-06 20:03 | 21.64631 | -157.18465 | 15538 ft | 416 kts | 46° |
| 2026-05-06 20:03 | 21.66645 | -157.16197 | 15984 ft | 417 kts | 46° |
| 2026-05-06 20:04 | 21.68617 | -157.13979 | 16411 ft | 419 kts | 46° |
| 2026-05-06 20:04 | 21.70602 | -157.11743 | 16805 ft | 422 kts | 46° |
| 2026-05-06 20:04 | 21.72626 | -157.09464 | 17212 ft | 424 kts | 46° |
| 2026-05-06 20:04 | 21.74603 | -157.07233 | 17646 ft | 425 kts | 46° |
| 2026-05-06 20:05 | 21.76660 | -157.04910 | 18074 ft | 427 kts | 46° |
| 2026-05-06 20:05 | 21.78718 | -157.02586 | 18471 ft | 429 kts | 46° |
| 2026-05-06 20:05 | 21.80770 | -157.00272 | 18863 ft | 431 kts | 45° |
| 2026-05-06 20:05 | 21.83029 | -156.98143 | 19241 ft | 432 kts | 35° |
| 2026-05-06 20:06 | 21.85534 | -156.96509 | 19597 ft | 433 kts | 25° |
| 2026-05-06 20:06 | 21.88362 | -156.95326 | 19957 ft | 435 kts | 15° |
| 2026-05-06 20:06 | 21.91278 | -156.94457 | 20350 ft | 436 kts | 14° |
| 2026-05-06 20:06 | 21.94149 | -156.93633 | 20711 ft | 438 kts | 14° |
| 2026-05-06 20:07 | 21.97120 | -156.92780 | 21078 ft | 440 kts | 14° |
| 2026-05-06 20:07 | 22.00072 | -156.91930 | 21405 ft | 443 kts | 14° |
| 2026-05-06 20:07 | 22.03048 | -156.91072 | 21730 ft | 445 kts | 14° |
| 2026-05-06 20:07 | 22.06057 | -156.90204 | 22062 ft | 448 kts | 14° |
| 2026-05-06 20:08 | 22.09057 | -156.89337 | 22390 ft | 450 kts | 14° |
| 2026-05-06 20:08 | 22.12095 | -156.88458 | 22746 ft | 451 kts | 14° |
| 2026-05-06 20:08 | 22.15140 | -156.87578 | 23120 ft | 452 kts | 14° |
| 2026-05-06 20:08 | 22.18183 | -156.86696 | 23501 ft | 453 kts | 14° |
| 2026-05-06 20:09 | 22.21220 | -156.85817 | 23855 ft | 454 kts | 14° |
| 2026-05-06 20:09 | 22.24247 | -156.84940 | 24173 ft | 456 kts | 14° |
| 2026-05-06 20:09 | 22.27348 | -156.84039 | 24490 ft | 458 kts | 14° |
| 2026-05-06 20:09 | 22.30441 | -156.83142 | 24848 ft | 459 kts | 14° |
| 2026-05-06 20:10 | 22.32775 | -156.82465 | 25100 ft | 460 kts | 14° |
| 2026-05-06 20:10 | 22.35875 | -156.81564 | 25384 ft | 462 kts | 14° |
| 2026-05-06 20:10 | 22.38974 | -156.80664 | 25654 ft | 465 kts | 14° |
| 2026-05-06 20:10 | 22.42125 | -156.79748 | 25954 ft | 466 kts | 14° |
| 2026-05-06 20:11 | 22.45262 | -156.78836 | 26272 ft | 468 kts | 14° |
| 2026-05-06 20:11 | 22.48393 | -156.77919 | 26566 ft | 469 kts | 14° |
| 2026-05-06 20:11 | 22.51577 | -156.76982 | 26824 ft | 471 kts | 14° |
| 2026-05-06 20:11 | 22.54750 | -156.76047 | 27089 ft | 473 kts | 14° |
| 2026-05-06 20:12 | 22.57907 | -156.75116 | 27363 ft | 475 kts | 13° |
| 2026-05-06 20:12 | 22.61135 | -156.74165 | 27635 ft | 476 kts | 13° |
| 2026-05-06 20:12 | 22.64312 | -156.73227 | 27917 ft | 477 kts | 13° |
| 2026-05-06 20:12 | 22.67517 | -156.72282 | 28157 ft | 479 kts | 13° |
| 2026-05-06 20:13 | 22.70752 | -156.71327 | 28391 ft | 481 kts | 13° |
| 2026-05-06 20:13 | 22.74009 | -156.70366 | 28663 ft | 482 kts | 13° |
| 2026-05-06 20:13 | 22.77245 | -156.69409 | 28877 ft | 485 kts | 13° |
| 2026-05-06 20:13 | 22.80500 | -156.68459 | 29048 ft | 488 kts | 13° |
| 2026-05-06 20:14 | 22.83790 | -156.67499 | 29262 ft | 490 kts | 13° |
| 2026-05-06 20:14 | 22.87088 | -156.66538 | 29488 ft | 491 kts | 13° |
| 2026-05-06 20:14 | 22.90397 | -156.65570 | 29726 ft | 492 kts | 13° |
| 2026-05-06 20:14 | 22.93738 | -156.64594 | 29956 ft | 494 kts | 13° |
| 2026-05-06 20:15 | 22.97041 | -156.63628 | 30140 ft | 496 kts | 13° |
| 2026-05-06 20:15 | 23.00368 | -156.62654 | 30358 ft | 498 kts | 13° |
| 2026-05-06 20:15 | 23.03745 | -156.61664 | 30693 ft | 496 kts | 13° |
| 2026-05-06 20:15 | 23.07099 | -156.60681 | 31031 ft | 495 kts | 13° |
| 2026-05-06 20:16 | 23.10416 | -156.59709 | 30930 ft | 496 kts | 13° |
| 2026-05-06 20:16 | 23.13716 | -156.58740 | 30957 ft | 493 kts | 13° |
| 2026-05-06 20:16 | 23.17085 | -156.57773 | 31116 ft | 494 kts | 12° |
| 2026-05-06 20:16 | 23.20390 | -156.56787 | 31296 ft | 499 kts | 13° |
| 2026-05-06 20:17 | 23.27111 | -156.54790 | 31156 ft | 494 kts | 12° |
| 2026-05-06 20:17 | 23.33760 | -156.52859 | 31118 ft | 496 kts | 12° |
| 2026-05-06 20:18 | 23.40450 | -156.50931 | 31095 ft | 495 kts | 12° |